createdAt,value
2017-07-09T15:35:33.508Z,49.5
2017-07-09T15:35:55.031Z,48.8
2017-07-09T15:36:17.072Z,49.2
2017-07-09T15:36:38.054Z,47.4
2017-07-09T15:36:59.215Z,47
2017-07-09T15:37:20.184Z,45.8
2017-07-09T15:37:42.326Z,45.8
2017-07-09T15:38:03.441Z,45.8
2017-07-09T15:38:24.605Z,46.2
2017-07-09T15:38:46.307Z,46
2017-07-09T15:39:11.699Z,45.8
2017-07-09T15:39:33.446Z,46
2017-07-09T15:39:56.090Z,46.5
2017-07-09T15:40:16.807Z,46.1
2017-07-09T15:40:37.914Z,46.4
2017-07-09T15:40:59.088Z,46.6
2017-07-09T15:41:20.168Z,45.7
2017-07-09T15:41:42.770Z,43.4
2017-07-09T15:42:05.182Z,43.6
2017-07-09T15:42:26.907Z,43.5
2017-07-09T15:42:49.988Z,43.3
2017-07-09T15:43:11.813Z,43.5
2017-07-09T15:43:35.532Z,44.2
2017-07-09T15:43:57.515Z,44.4
2017-07-09T15:44:18.189Z,46.3
2017-07-09T15:44:40.338Z,46.3
2017-07-09T15:45:01.956Z,45
2017-07-09T15:45:23.826Z,44.2
2017-07-09T15:45:45.631Z,44.5
2017-07-09T15:46:06.722Z,44.7
2017-07-09T15:46:27.797Z,45.2
2017-07-09T15:46:48.654Z,46.2
2017-07-09T15:47:12.711Z,45.7
2017-07-09T15:47:35.710Z,45.7
2017-07-09T15:47:57.334Z,45.3
2017-07-09T15:48:19.123Z,44.9
2017-07-09T15:48:39.515Z,44.5
2017-07-09T15:49:00.942Z,45.2
2017-07-09T15:49:21.811Z,43.7
2017-07-09T15:49:43.133Z,43.4
2017-07-09T15:50:04.867Z,44.3
2017-07-09T15:50:25.952Z,43.7
2017-07-09T15:50:47.475Z,43.2
2017-07-09T15:51:09.496Z,43.3
2017-07-09T15:51:30.382Z,42.7
2017-07-09T15:51:53.392Z,43.4
2017-07-09T15:52:14.715Z,42.8
2017-07-09T15:52:35.890Z,43.2
2017-07-09T15:52:56.590Z,43.3
2017-07-09T15:53:17.633Z,43.1
2017-07-09T15:53:38.689Z,42.7
2017-07-09T15:53:59.758Z,43.8
2017-07-09T15:54:20.967Z,43.6
2017-07-09T15:54:42.680Z,43.8
2017-07-09T15:55:04.590Z,43.8
2017-07-09T15:55:26.052Z,43.8
2017-07-09T15:55:46.934Z,44.3
2017-07-09T15:56:08.596Z,45.2
2017-07-09T15:56:29.808Z,45
2017-07-09T15:56:50.877Z,44.4
2017-07-09T15:57:11.472Z,44.7
2017-07-09T15:57:33.472Z,44.9
2017-07-09T15:57:55.169Z,45
2017-07-09T15:58:16.933Z,45.2
2017-07-09T15:58:37.761Z,44.4
2017-07-09T15:58:58.272Z,43.9
2017-07-09T15:59:20.166Z,43.5
2017-07-09T15:59:41.035Z,43.3
2017-07-09T16:00:02.134Z,44
2017-07-09T16:00:22.979Z,43.9
2017-07-09T16:00:43.342Z,44.5
2017-07-09T16:01:03.723Z,44.5
2017-07-09T16:01:23.994Z,43.7
2017-07-09T16:01:44.286Z,43.2
2017-07-09T16:02:04.637Z,42.8
2017-07-09T16:02:24.996Z,42.9
2017-07-09T16:02:45.385Z,43.5
2017-07-09T16:03:05.731Z,43.6
2017-07-09T16:03:26.052Z,43.7
2017-07-09T16:03:46.488Z,44.3
2017-07-09T16:04:06.883Z,44.6
2017-07-09T16:04:27.179Z,45.2
2017-07-09T16:04:47.574Z,45.3
2017-07-09T16:05:07.850Z,45.3
2017-07-09T16:05:28.238Z,45.6
2017-07-09T16:05:48.599Z,45.8
2017-07-09T16:06:08.946Z,45.8
2017-07-09T16:06:29.273Z,46.4
2017-07-09T16:06:49.739Z,46.2
2017-07-09T16:07:10.047Z,46.2
2017-07-09T16:07:30.363Z,46.3
2017-07-09T16:07:50.682Z,46.6
2017-07-09T16:08:11.081Z,46.4
2017-07-09T16:08:31.469Z,46.9
2017-07-09T16:08:51.804Z,46.9
2017-07-09T16:09:12.103Z,47.4
2017-07-09T16:09:32.392Z,47.5
2017-07-09T16:09:52.692Z,47.4
2017-07-09T16:10:12.999Z,47.7
2017-07-09T16:10:33.296Z,47.8
2017-07-09T16:10:53.634Z,48.2
2017-07-09T16:11:13.950Z,48.5
2017-07-09T16:11:34.288Z,49.2
2017-07-09T16:11:54.514Z,49.6
2017-07-09T16:12:14.833Z,49.4
2017-07-09T16:12:35.163Z,49.7
2017-07-09T16:12:55.456Z,49.5
2017-07-09T16:13:15.745Z,49.9
2017-07-09T16:13:36.031Z,50.2
2017-07-09T16:13:56.389Z,49.7
2017-07-09T16:14:16.705Z,49.9
2017-07-09T16:14:37.048Z,49.9
2017-07-09T16:14:57.370Z,49.9
2017-07-09T16:15:17.873Z,50.3
2017-07-09T16:15:38.225Z,49.9
2017-07-09T16:15:58.527Z,50.3
2017-07-09T16:16:18.910Z,50.3
2017-07-09T16:16:39.245Z,50.6
2017-07-09T16:16:59.575Z,50.7
2017-07-09T16:17:19.919Z,51.7
2017-07-09T16:17:40.253Z,51.7
2017-07-09T16:18:00.573Z,51.6
2017-07-09T16:18:20.985Z,52
2017-07-09T16:18:41.311Z,51.7
2017-07-09T16:19:01.676Z,51.6
2017-07-09T16:19:21.989Z,50.9
2017-07-09T16:19:42.307Z,51.2
2017-07-09T16:20:02.567Z,51.5
2017-07-09T16:20:22.888Z,51
2017-07-09T16:20:43.244Z,51.1
2017-07-09T16:21:03.551Z,51.4
2017-07-09T20:15:51.471Z,87.2
2017-07-09T20:16:11.775Z,86.9
2017-07-09T20:16:32.177Z,86.9
2017-07-09T20:16:52.540Z,86.8
2017-07-09T20:17:12.849Z,86.8
2017-07-09T20:17:33.184Z,86.9
2017-07-09T20:17:53.514Z,87
2017-07-09T20:18:13.985Z,86.9
2017-07-09T20:18:34.262Z,87
2017-07-09T20:18:54.581Z,87.2
2017-07-09T20:19:14.904Z,86.9
2017-07-09T20:19:35.262Z,87
2017-07-09T20:19:55.601Z,86.7
2017-07-09T20:20:15.997Z,86.9
2017-07-09T20:20:36.351Z,86.9
2017-07-09T20:20:56.648Z,86.7
2017-07-09T20:21:16.990Z,86.7
2017-07-09T20:21:37.361Z,86.8
2017-07-09T20:21:57.628Z,86.7
2017-07-09T20:22:18.003Z,86.7
2017-07-09T20:22:38.373Z,87.1
2017-07-09T20:22:59.674Z,87.1
2017-07-09T20:23:19.954Z,87
2017-07-09T20:23:40.256Z,86.8
2017-07-09T20:24:00.608Z,86.9
2017-07-09T20:24:20.913Z,86.9
2017-07-09T20:24:41.252Z,86.9
2017-07-09T20:25:01.524Z,87
2017-07-09T20:25:21.842Z,86.9
2017-07-09T20:25:42.624Z,87
2017-07-09T20:26:02.926Z,87
2017-07-09T20:26:23.192Z,87.1
2017-07-09T20:26:43.607Z,87
2017-07-09T20:27:03.848Z,86.9
2017-07-09T20:27:24.212Z,86.9
2017-07-09T20:27:44.870Z,86.9
2017-07-09T20:28:05.547Z,86.9
2017-07-09T20:28:26.509Z,86.8
2017-07-09T20:28:46.771Z,86.9
2017-07-09T20:29:07.126Z,86.8
2017-07-09T20:29:27.499Z,86.5
2017-07-09T20:29:47.773Z,87.2
2017-07-09T20:30:08.125Z,86.9
2017-07-09T20:30:28.599Z,87
2017-07-09T20:30:48.910Z,87
2017-07-09T20:31:09.206Z,86.9
2017-07-09T20:31:29.575Z,87
2017-07-09T20:31:50.479Z,86.7
2017-07-09T20:32:10.893Z,86.9
2017-07-09T20:32:31.191Z,87
2017-07-09T20:32:51.515Z,87.3
2017-07-09T20:33:30.380Z,87.3
2017-07-09T20:33:50.721Z,87.2
2017-07-09T20:34:11.043Z,87.4
2017-07-09T20:34:32.115Z,87.4
2017-07-09T20:34:52.590Z,87.5
2017-07-09T20:35:13.016Z,86.8
2017-07-09T20:35:33.472Z,87
2017-07-09T20:35:53.868Z,86.7
2017-07-09T20:36:14.344Z,87
2017-07-09T20:36:34.667Z,87.4
2017-07-09T20:36:55.104Z,87.1
2017-07-09T20:37:16.095Z,87.3
2017-07-09T20:37:36.434Z,87.3
2017-07-09T20:37:56.771Z,87.3
2017-07-09T20:38:17.430Z,87.3
2017-07-09T20:38:38.623Z,87.6
2017-07-09T20:38:58.890Z,87.5
2017-07-09T20:39:19.182Z,87.2
2017-07-09T20:39:39.536Z,88
2017-07-09T20:39:59.919Z,87.7
2017-07-09T20:40:20.189Z,88.3
2017-07-09T20:40:40.478Z,88.2
2017-07-09T20:41:00.839Z,88.1
2017-07-09T20:41:21.165Z,88.1
2017-07-09T20:41:43.272Z,88.4
2017-07-09T20:42:03.603Z,88.2
2017-07-09T20:42:23.959Z,88.2
2017-07-09T20:42:44.064Z,88.4
2017-07-09T20:43:04.386Z,88.3
2017-07-09T20:43:24.653Z,88.3
2017-07-09T20:43:44.808Z,88.7
2017-07-09T20:44:06.073Z,88.7
2017-07-09T20:44:26.409Z,88.8
2017-07-09T20:44:46.684Z,88.7
2017-07-09T20:45:07.000Z,89
2017-07-09T20:45:27.460Z,89.2
2017-07-09T20:45:47.718Z,88.9
2017-07-09T20:46:08.009Z,89.6
2017-07-09T20:46:28.380Z,89.6
2017-07-09T20:46:48.702Z,89.4
2017-07-09T20:47:09.074Z,89.5
2017-07-09T20:47:29.411Z,89.5
2017-07-09T20:47:51.298Z,89.6
2017-07-09T20:48:11.750Z,89.8
2017-07-09T20:48:32.132Z,90.1
2017-07-09T20:48:54.224Z,90.1
2017-07-09T20:49:14.576Z,90
2017-07-09T20:49:34.987Z,90.1
2017-07-09T20:49:57.822Z,90.1
2017-07-09T20:50:19.098Z,90.1
2017-07-09T20:50:41.091Z,90.5
2017-07-09T20:51:01.533Z,90.4
2017-07-09T20:51:23.767Z,90.7
2017-07-09T20:51:45.228Z,90.4
2017-07-09T20:52:06.226Z,90.6
2017-07-09T20:52:26.604Z,90.3
2017-07-09T20:52:46.929Z,89.9
2017-07-09T20:53:07.242Z,90.2
2017-07-09T20:53:27.504Z,90.4
2017-07-09T20:53:47.832Z,90.1
2017-07-09T20:54:08.150Z,90.2
2017-07-09T20:54:28.463Z,90.5
2017-07-09T20:54:48.738Z,90.8
2017-07-09T20:55:09.057Z,90.4
2017-07-09T20:55:29.514Z,90.7
2017-07-09T20:55:50.425Z,90.8
2017-07-09T20:56:10.780Z,90.8
2017-07-09T20:56:31.053Z,90.4
2017-07-09T20:56:51.370Z,90.3
2017-07-09T20:57:11.681Z,90.3
2017-07-09T20:57:31.707Z,90.3
2017-07-09T20:57:52.012Z,90.4
2017-07-09T20:58:12.312Z,90.7
2017-07-09T20:58:32.662Z,90.9
2017-07-09T20:58:52.980Z,91.2
2017-07-09T20:59:13.284Z,90.5
2017-07-09T20:59:33.568Z,90.3
2017-07-09T20:59:53.938Z,90.4
2017-07-09T21:00:14.217Z,90.8
2017-07-09T21:00:34.526Z,91
2017-07-09T21:00:54.811Z,90.6
2017-07-09T21:01:15.086Z,90.3
2017-07-09T21:01:35.359Z,90.8
2017-07-09T21:01:55.629Z,90.6
2017-07-09T21:02:15.899Z,90.1
2017-07-09T21:02:36.254Z,89.9
2017-07-09T21:02:56.517Z,89.9
2017-07-09T21:03:16.865Z,89.9
2017-07-09T21:03:37.146Z,90.1
2017-07-09T21:03:59.256Z,90.2
2017-07-09T21:04:19.843Z,89.9
2017-07-09T21:04:40.201Z,89.9
2017-07-09T21:05:00.596Z,90.5
2017-07-09T21:05:20.965Z,90.5
2017-07-09T21:05:41.455Z,90.5
2017-07-09T21:06:01.965Z,90.8
2017-07-09T21:06:22.473Z,90.3
2017-07-09T21:06:42.784Z,90.6
2017-07-09T21:07:03.409Z,90.9
2017-07-09T21:07:24.052Z,91
2017-07-09T21:07:44.451Z,90.7
2017-07-09T21:08:04.861Z,90.3
2017-07-09T21:08:25.254Z,91
2017-07-09T21:08:45.690Z,90.6
2017-07-09T21:09:06.272Z,90.3
2017-07-09T21:09:26.639Z,90.9
2017-07-09T21:09:47.101Z,91.1
2017-07-09T21:10:07.578Z,90.9
2017-07-09T21:10:28.096Z,90.3
2017-07-09T21:10:48.469Z,90.8
2017-07-09T21:11:08.956Z,90.7
2017-07-09T21:11:29.380Z,91.6
2017-07-09T21:11:49.690Z,91.5
2017-07-09T21:12:10.769Z,91.1
2017-07-09T21:12:31.246Z,90.9
2017-07-09T21:12:51.618Z,91.5
2017-07-09T21:13:12.028Z,91.4
2017-07-09T21:13:32.315Z,91.4
2017-07-09T21:13:52.592Z,91.4
2017-07-09T21:14:13.010Z,91.4
2017-07-09T21:14:33.319Z,91.6
2017-07-09T21:14:53.585Z,91
2017-07-09T21:15:13.905Z,91.8
2017-07-09T21:15:34.191Z,91.5
2017-07-09T21:15:54.458Z,91.9
2017-07-09T21:16:14.829Z,91.5
2017-07-09T21:16:35.186Z,91.6
2017-07-09T21:16:55.500Z,91.3
2017-07-09T21:17:15.771Z,91.4
2017-07-09T21:17:36.051Z,91.1
2017-07-09T21:17:56.373Z,90.8
2017-07-09T21:18:16.673Z,91.4
2017-07-09T21:18:37.006Z,91.1
2017-07-09T21:18:57.382Z,91
2017-07-09T21:19:17.693Z,91
2017-07-09T21:19:37.978Z,91.3
2017-07-09T21:19:58.466Z,91.5
2017-07-09T21:20:18.832Z,91.3
2017-07-09T21:20:39.271Z,91.3
2017-07-09T21:20:59.851Z,91.4
2017-07-09T21:21:20.240Z,91.4
2017-07-09T21:21:41.298Z,91.4
2017-07-09T21:22:01.714Z,91.5
2017-07-09T21:22:22.207Z,91.4
2017-07-09T21:22:42.626Z,91.4
2017-07-09T21:23:03.460Z,91.2
2017-07-09T21:23:23.858Z,91.1
2017-07-09T21:23:44.208Z,91.4
2017-07-09T21:24:04.511Z,91.4
2017-07-09T21:24:24.825Z,91.6
2017-07-09T21:24:45.225Z,91.6
2017-07-09T21:25:05.575Z,91.4
2017-07-09T21:25:25.867Z,91.5
2017-07-09T21:25:46.151Z,91.4
2017-07-09T21:26:06.412Z,91.8
2017-07-09T21:26:26.719Z,91.4
2017-07-09T21:26:47.022Z,91.2
2017-07-09T21:27:07.432Z,91.4
2017-07-09T21:27:27.998Z,91.7
2017-07-09T21:27:48.453Z,91.4
2017-07-09T21:28:09.636Z,91.4
2017-07-09T21:28:30.726Z,91.4
2017-07-09T21:28:51.048Z,90.9
2017-07-09T21:29:11.413Z,90.9
2017-07-09T21:29:31.852Z,91.4
2017-07-09T21:29:52.292Z,91.5
2017-07-09T21:30:12.569Z,91.6
2017-07-09T21:30:33.085Z,91.5
2017-07-09T21:30:53.368Z,91.4
2017-07-09T21:31:13.648Z,91.4
2017-07-09T21:31:34.080Z,91.1
2017-07-09T21:31:54.572Z,91.4
2017-07-09T21:32:14.858Z,91.5
2017-07-09T21:32:35.243Z,91.4
2017-07-09T21:32:55.604Z,91.6
2017-07-09T21:33:16.055Z,91.5
2017-07-09T21:33:36.547Z,91.6
2017-07-09T21:33:56.921Z,91.2
2017-07-09T21:34:17.446Z,91.4
2017-07-09T21:34:38.664Z,90.9
2017-07-09T21:34:59.212Z,91.5
2017-07-09T21:35:19.700Z,91.1
2017-07-09T21:35:40.173Z,91.4
2017-07-09T21:36:00.422Z,90.8
2017-07-09T21:36:20.801Z,91.4
2017-07-09T21:36:41.178Z,91.4
2017-07-09T21:37:01.583Z,91.2
2017-07-09T21:37:22.011Z,91
2017-07-09T21:37:42.604Z,91
2017-07-09T21:38:02.961Z,91.4
2017-07-09T21:38:23.227Z,91.1
2017-07-09T21:38:43.554Z,91.3
2017-07-09T21:39:03.839Z,91.5
2017-07-09T21:39:24.196Z,91.5
2017-07-09T21:39:44.634Z,91.8
2017-07-09T21:40:05.066Z,91.5
2017-07-09T21:40:25.548Z,91.4
2017-07-09T21:40:46.104Z,91.4
2017-07-09T21:41:06.427Z,91.3
2017-07-09T21:41:26.784Z,91.6
2017-07-09T21:41:47.227Z,91.6
2017-07-09T21:42:07.715Z,92.3
2017-07-09T21:42:28.046Z,92.3
2017-07-09T21:42:48.373Z,92.9
2017-07-09T21:43:08.656Z,93.2
2017-07-09T21:43:28.955Z,93.3
2017-07-09T21:43:49.394Z,93.3
2017-07-09T21:44:09.868Z,93.1
2017-07-09T21:44:30.292Z,93.3
2017-07-09T21:44:50.663Z,93.2
2017-07-09T21:45:11.079Z,94.1
2017-07-09T21:45:31.651Z,94.1
2017-07-09T21:45:52.237Z,93.5
2017-07-09T21:46:12.704Z,94
2017-07-09T21:46:32.998Z,93.9
2017-07-09T21:46:53.280Z,94
2017-07-09T21:47:13.598Z,94.2
2017-07-09T21:47:33.890Z,94.6
2017-07-09T21:47:54.197Z,94.7
2017-07-09T21:48:14.518Z,94.9
2017-07-09T21:48:34.857Z,94.8
2017-07-09T21:48:55.165Z,94.4
2017-07-09T21:49:15.568Z,94.3
2017-07-09T21:49:35.855Z,94.2
2017-07-09T21:49:56.141Z,93.9
2017-07-09T21:50:17.261Z,94.1
2017-07-09T21:50:37.337Z,94.2
2017-07-09T21:50:57.674Z,94.1
2017-07-09T21:51:18.041Z,94.8
2017-07-09T21:51:39.181Z,94.3
2017-07-09T21:51:59.548Z,94.7
2017-07-09T21:52:20.074Z,93.9
2017-07-09T21:52:41.280Z,93.8
2017-07-09T21:53:03.233Z,94.1
2017-07-09T21:53:23.511Z,93.8
2017-07-09T21:53:44.763Z,94.8
2017-07-09T21:54:06.264Z,94.2
2017-07-09T21:54:26.582Z,94.5
2017-07-09T21:54:47.638Z,94.4
2017-07-09T21:55:08.780Z,94.9
2017-07-09T21:55:30.226Z,95.2
2017-07-09T21:55:51.220Z,95.5
2017-07-09T21:56:12.268Z,95
2017-07-09T21:56:32.640Z,95.6
2017-07-09T21:56:53.620Z,95
2017-07-09T21:57:14.064Z,95.3
2017-07-09T21:57:34.391Z,94.3
2017-07-09T21:57:55.717Z,94.9
2017-07-09T21:58:17.271Z,95.3
2017-07-09T21:58:37.606Z,95.2
2017-07-09T21:59:00.262Z,95.5
2017-07-09T21:59:20.547Z,96.2
2017-07-09T21:59:40.950Z,95.4
2017-07-09T22:00:02.131Z,95.3
2017-07-09T22:00:23.277Z,95.6
2017-07-09T22:00:44.133Z,95.3
2017-07-09T22:01:04.497Z,95.4
2017-07-09T22:01:25.752Z,95.5
2017-07-09T22:01:46.037Z,95.9
2017-07-09T22:02:07.193Z,95.5
2017-07-09T22:02:28.780Z,95.5
2017-07-09T22:02:49.104Z,95.7
2017-07-09T22:03:10.224Z,95.6
2017-07-09T22:03:31.128Z,95.9
2017-07-09T22:03:52.772Z,95.3
2017-07-09T22:04:13.180Z,95.1
2017-07-09T22:04:33.536Z,95
2017-07-09T22:04:55.259Z,95.2
2017-07-09T22:05:17.275Z,95.1
2017-07-09T22:05:37.560Z,95.1
2017-07-09T22:05:57.826Z,95
2017-07-09T22:06:38.725Z,95.7
2017-07-09T22:06:59.595Z,95.6
2017-07-09T22:07:20.777Z,96.3
2017-07-09T22:07:41.767Z,96.1
2017-07-09T22:08:02.720Z,96.3
2017-07-09T22:08:24.272Z,96.1
2017-07-09T22:08:44.579Z,96.2
2017-07-09T22:09:04.875Z,96.2
2017-07-09T22:09:25.733Z,95.9
2017-07-09T22:09:47.273Z,96.3
2017-07-09T22:10:08.139Z,96.1
2017-07-09T22:10:30.182Z,96.1
2017-07-09T22:10:50.502Z,96.5
2017-07-09T22:11:10.536Z,96.6
2017-07-09T22:11:30.841Z,96.4
2017-07-09T22:11:51.163Z,96.6
2017-07-09T22:12:11.490Z,96.5
2017-07-09T22:12:31.769Z,96.6
2017-07-09T22:12:52.786Z,96.9
2017-07-09T22:13:13.697Z,95.9
2017-07-09T22:13:36.283Z,96.2
2017-07-09T22:13:57.280Z,96.5
2017-07-09T22:14:17.651Z,96.7
2017-07-09T22:14:38.779Z,96.6
2017-07-09T22:14:59.092Z,96.1
2017-07-09T22:15:19.460Z,95.8
2017-07-09T22:15:39.819Z,96.1
2017-07-09T22:16:00.135Z,96.2
2017-07-09T22:16:20.468Z,95.8
2017-07-09T22:16:41.781Z,96
2017-07-09T22:17:02.132Z,96
2017-07-09T22:17:22.503Z,96.2
2017-07-09T22:17:43.658Z,96.7
2017-07-09T22:18:03.958Z,96.7
2017-07-09T22:18:24.306Z,96.6
2017-07-09T22:18:45.572Z,96.5
2017-07-09T22:19:05.960Z,96.6
2017-07-09T22:19:26.228Z,96.6
2017-07-09T22:19:46.519Z,96.6
2017-07-09T22:20:06.794Z,96.3
2017-07-09T22:20:27.701Z,96.4
2017-07-09T22:20:48.741Z,96.3
2017-07-09T22:21:09.096Z,96
2017-07-09T22:21:30.193Z,96.4
2017-07-09T22:21:50.518Z,95.6
2017-07-09T22:22:10.885Z,96
2017-07-09T22:22:31.277Z,96.5
2017-07-09T22:22:51.645Z,96
2017-07-09T22:23:11.956Z,95.8
2017-07-09T22:23:32.313Z,96.5
2017-07-09T22:23:52.696Z,96.2
2017-07-09T22:24:13.003Z,96.1
2017-07-09T22:24:33.362Z,95.9
2017-07-09T22:24:53.643Z,95.9
2017-07-09T22:25:14.001Z,95.7
2017-07-09T22:25:34.284Z,95.5
2017-07-09T22:25:54.607Z,95.1
2017-07-09T22:26:14.938Z,95.4
2017-07-09T22:26:35.299Z,95.7
2017-07-09T22:26:56.299Z,95
2017-07-09T22:27:16.558Z,95.1
2017-07-09T22:27:36.904Z,94.9
2017-07-09T22:27:57.270Z,95.4
2017-07-09T22:28:17.237Z,95.4
2017-07-09T22:28:37.544Z,95.7
2017-07-09T22:28:57.863Z,95.8
2017-07-09T22:29:18.150Z,96.4
2017-07-09T22:29:38.426Z,95.9
2017-07-09T22:29:58.687Z,96
2017-07-09T22:30:18.964Z,95.8
2017-07-09T22:30:39.226Z,96.1
2017-07-09T22:30:59.512Z,96
2017-07-09T22:31:19.817Z,96.1
2017-07-09T22:31:40.134Z,96.1
2017-07-09T22:32:00.409Z,95.9
2017-07-09T22:32:20.675Z,96.2
2017-07-09T22:32:40.995Z,96.2
2017-07-09T22:33:01.297Z,96
2017-07-09T22:33:21.591Z,96.1
2017-07-09T22:33:41.904Z,95.9
2017-07-09T22:34:02.225Z,96.1
2017-07-09T22:34:22.488Z,95.8
2017-07-09T22:34:42.847Z,96
2017-07-09T22:35:03.125Z,96.1
2017-07-09T22:35:23.524Z,96.1
2017-07-09T22:35:43.911Z,96
2017-07-09T22:36:04.177Z,96.2
2017-07-09T22:36:24.449Z,96.1
2017-07-09T22:36:44.798Z,96.2
2017-07-09T22:37:05.114Z,96.8
2017-07-09T22:37:25.448Z,95.9
2017-07-09T22:37:45.834Z,96.2
2017-07-09T22:38:06.191Z,96.2
2017-07-09T22:38:26.512Z,96.3
2017-07-09T22:38:46.781Z,95.9
2017-07-09T22:39:07.100Z,95.7
2017-07-09T22:39:27.457Z,95.7
2017-07-09T22:39:47.731Z,95.6
2017-07-09T22:40:08.004Z,95.9
2017-07-09T22:40:28.278Z,95.6
2017-07-09T22:40:48.557Z,95.9
2017-07-09T22:41:08.939Z,95.5
2017-07-09T22:41:29.251Z,95.7
2017-07-09T22:41:49.646Z,95.7
2017-07-09T22:42:09.995Z,96.1
2017-07-09T22:42:30.275Z,96.2
2017-07-09T22:42:50.643Z,96.4
2017-07-09T22:43:10.956Z,96
2017-07-09T22:43:31.234Z,96.2
2017-07-09T22:43:51.538Z,96.3
2017-07-09T22:44:11.903Z,96.8
2017-07-09T22:44:32.246Z,96
2017-07-09T22:44:52.528Z,96.3
2017-07-09T22:45:12.866Z,97.3
2017-07-09T22:45:33.206Z,96.9
2017-07-09T22:45:53.537Z,97.1
2017-07-09T22:46:13.865Z,97.1
2017-07-09T22:46:34.236Z,97.7
2017-07-09T22:46:54.547Z,97.7
2017-07-09T22:47:14.827Z,97.5
2017-07-09T22:47:35.098Z,97.9
2017-07-09T22:47:55.378Z,97.9
2017-07-09T22:48:15.712Z,98.1
2017-07-09T22:48:36.042Z,98
2017-07-09T22:48:56.374Z,98.1
2017-07-09T22:49:16.684Z,97.9
2017-07-09T22:49:36.946Z,97.7
2017-07-09T22:49:57.224Z,97.6
2017-07-09T22:50:17.538Z,98.1
2017-07-09T22:50:37.800Z,98
2017-07-09T22:50:58.118Z,97.7
2017-07-09T22:51:18.370Z,98.6
2017-07-09T22:51:38.670Z,98.7
2017-07-09T22:51:59.014Z,98.1
2017-07-09T22:52:19.291Z,98
2017-07-09T22:52:39.630Z,98.1
2017-07-09T22:52:59.970Z,98
2017-07-09T22:53:20.285Z,98.1
2017-07-09T22:53:40.579Z,98.5
2017-07-09T22:54:00.918Z,98.3
2017-07-09T22:54:21.231Z,98.4
2017-07-09T22:54:41.587Z,98.6
2017-07-09T22:55:01.956Z,98.7
2017-07-09T22:55:22.228Z,98.2
2017-07-09T22:55:42.583Z,98.2
2017-07-09T22:56:02.957Z,98.7
2017-07-09T22:56:23.263Z,98.8
2017-07-09T22:56:43.533Z,99.4
2017-07-09T22:57:03.815Z,98.8
2017-07-09T22:57:24.088Z,98.2
2017-07-09T22:57:44.393Z,98.2
2017-07-09T22:58:04.715Z,98.5
2017-07-09T22:58:25.020Z,99.1
2017-07-09T22:58:45.370Z,99.2
2017-07-09T22:59:05.749Z,98.9
2017-07-09T22:59:26.132Z,98.6
2017-07-09T22:59:46.467Z,99.3
2017-07-09T23:00:06.774Z,99
2017-07-09T23:00:27.100Z,99.3
2017-07-09T23:00:47.363Z,98.9
2017-07-09T23:01:07.713Z,99
2017-07-09T23:01:27.949Z,99.4
2017-07-09T23:01:48.263Z,98.6
2017-07-09T23:02:08.549Z,98.2
2017-07-09T23:02:28.929Z,98.4
2017-07-09T23:02:49.279Z,98.2
2017-07-09T23:03:09.603Z,98.2
2017-07-09T23:03:29.909Z,98.4
2017-07-09T23:03:50.240Z,98.4
2017-07-09T23:04:10.599Z,98.5
2017-07-09T23:04:30.871Z,98
2017-07-09T23:04:50.875Z,97.9
2017-07-09T23:05:11.202Z,98.7
2017-07-09T23:05:31.479Z,98.5
2017-07-09T23:05:51.885Z,98.6
2017-07-09T23:06:12.175Z,98.7
2017-07-09T23:06:32.509Z,98.4
2017-07-09T23:06:52.826Z,98.3
2017-07-09T23:07:13.135Z,98.2
2017-07-09T23:07:33.399Z,98.2
2017-07-09T23:07:53.707Z,98.6
2017-07-09T23:08:14.007Z,98.3
2017-07-09T23:08:34.310Z,98.5
2017-07-09T23:08:54.624Z,98.2
2017-07-09T23:09:14.902Z,99
2017-07-09T23:09:35.222Z,98.2
2017-07-09T23:09:55.544Z,98.4
2017-07-09T23:10:15.947Z,98.4
2017-07-09T23:10:36.213Z,98.3
2017-07-09T23:10:56.546Z,98.2
2017-07-09T23:11:16.847Z,98.3
2017-07-09T23:11:37.253Z,98.6
2017-07-09T23:11:57.565Z,98.5
2017-07-09T23:12:17.956Z,98.4
2017-07-09T23:12:38.258Z,98.8
2017-07-09T23:12:58.559Z,98.2
2017-07-09T23:13:18.829Z,98.4
2017-07-09T23:13:39.095Z,98.1
2017-07-09T23:13:59.480Z,98.2
2017-07-09T23:14:19.788Z,98.5
2017-07-09T23:14:40.098Z,98.4
2017-07-09T23:15:00.447Z,98.6
2017-07-09T23:15:20.796Z,98.4
2017-07-09T23:15:41.094Z,97.8
2017-07-09T23:16:01.411Z,98
2017-07-09T23:16:21.673Z,98.6
2017-07-09T23:16:41.953Z,98.5
2017-07-09T23:17:02.250Z,98.2
2017-07-09T23:17:22.594Z,98.6
2017-07-09T23:17:42.860Z,99.3
2017-07-09T23:18:03.208Z,99.1
2017-07-09T23:18:23.463Z,98.9
2017-07-09T23:18:43.793Z,99.1
2017-07-09T23:19:04.107Z,98.7
2017-07-09T23:19:24.383Z,98.9
2017-07-09T23:19:44.658Z,99.3
2017-07-09T23:20:04.926Z,99.3
2017-07-09T23:20:25.248Z,98.6
2017-07-09T23:20:45.542Z,98.7
2017-07-09T23:21:05.841Z,98.7
2017-07-09T23:21:26.101Z,99.4
2017-07-09T23:21:46.569Z,99
2017-07-09T23:22:06.937Z,99.1
2017-07-09T23:22:27.235Z,99
2017-07-09T23:22:47.552Z,99
2017-07-09T23:23:07.896Z,99.3
2017-07-09T23:23:28.248Z,98.7
2017-07-09T23:23:48.547Z,99
2017-07-09T23:24:08.945Z,98.8
2017-07-09T23:24:30.165Z,98.9
2017-07-09T23:24:50.528Z,99.3
2017-07-09T23:25:10.946Z,99.3
2017-07-09T23:25:31.308Z,99.3
2017-07-09T23:25:51.585Z,98.9
2017-07-09T23:26:11.905Z,99
2017-07-09T23:26:32.228Z,99
2017-07-09T23:26:52.494Z,99.6
2017-07-09T23:27:12.855Z,99.5
2017-07-09T23:27:33.240Z,99.8
2017-07-09T23:27:53.723Z,99.7
2017-07-09T23:28:14.058Z,99.8
2017-07-09T23:28:34.404Z,100
2017-07-09T23:28:54.698Z,99.7
2017-07-09T23:29:14.986Z,100
2017-07-09T23:29:35.309Z,100
2017-07-09T23:29:55.682Z,100
2017-07-09T23:30:15.998Z,100
2017-07-09T23:30:36.328Z,100
2017-07-09T23:30:56.658Z,100
2017-07-09T23:31:16.922Z,100
2017-07-09T23:31:37.236Z,100
2017-07-09T23:31:57.569Z,100
2017-07-09T23:32:17.872Z,100
2017-07-09T23:32:38.224Z,100
2017-07-09T23:32:58.572Z,100
2017-07-09T23:33:19.052Z,100
2017-07-09T23:33:39.416Z,100
2017-07-09T23:33:59.675Z,100
2017-07-09T23:34:19.979Z,100
2017-07-09T23:34:40.269Z,100
2017-07-09T23:35:00.697Z,100
2017-07-09T23:35:21.072Z,100
2017-07-09T23:35:41.343Z,100
2017-07-09T23:36:01.632Z,100
2017-07-09T23:36:21.917Z,100
2017-07-09T23:36:42.231Z,100
2017-07-09T23:37:02.521Z,100
2017-07-09T23:37:22.850Z,100
2017-07-09T23:37:43.166Z,100
2017-07-09T23:38:03.442Z,100
2017-07-09T23:38:23.698Z,100
2017-07-09T23:38:44.020Z,100
2017-07-09T23:39:04.273Z,100
2017-07-09T23:39:24.602Z,100
2017-07-09T23:39:45.755Z,100
2017-07-09T23:40:06.073Z,100
2017-07-09T23:40:26.336Z,100
2017-07-09T23:40:46.680Z,100
2017-07-09T23:41:06.966Z,100
2017-07-09T23:41:27.303Z,100
2017-07-09T23:41:47.680Z,100
2017-07-09T23:42:07.985Z,100
2017-07-09T23:42:28.238Z,100
2017-07-09T23:42:48.503Z,100
2017-07-09T23:43:08.814Z,100
2017-07-09T23:43:29.126Z,100
2017-07-09T23:43:49.391Z,100
2017-07-09T23:44:09.718Z,100
2017-07-09T23:44:30.128Z,100
2017-07-09T23:44:50.387Z,100
2017-07-09T23:45:10.664Z,100
2017-07-09T23:45:31.011Z,100
2017-07-09T23:45:51.336Z,100
2017-07-09T23:46:11.646Z,100
2017-07-09T23:46:31.955Z,100
2017-07-09T23:46:52.249Z,100
2017-07-09T23:47:12.577Z,100
2017-07-09T23:47:32.854Z,100
2017-07-09T23:47:53.143Z,100
2017-07-09T23:48:13.430Z,100
2017-07-09T23:48:33.716Z,100
2017-07-09T23:48:54.041Z,100
2017-07-09T23:49:14.365Z,100
2017-07-09T23:49:34.657Z,100
2017-07-09T23:49:54.940Z,100
2017-07-09T23:50:15.263Z,100
2017-07-09T23:50:35.555Z,100
2017-07-09T23:50:55.880Z,100
2017-07-09T23:51:16.204Z,100
2017-07-09T23:51:36.563Z,100
2017-07-09T23:51:56.897Z,100
2017-07-09T23:52:17.205Z,100
2017-07-09T23:52:37.479Z,100
2017-07-09T23:52:57.748Z,100
2017-07-09T23:53:18.070Z,100
2017-07-09T23:53:38.338Z,100
2017-07-09T23:53:58.609Z,100
2017-07-09T23:54:18.886Z,100
2017-07-09T23:54:39.244Z,100
2017-07-09T23:54:59.525Z,100
2017-07-09T23:55:19.940Z,100
2017-07-09T23:55:40.213Z,100
2017-07-09T23:56:00.494Z,100
2017-07-09T23:56:20.872Z,100
2017-07-09T23:56:41.165Z,100
2017-07-09T23:57:01.444Z,100
2017-07-09T23:57:21.730Z,100
2017-07-09T23:57:42.084Z,100
2017-07-09T23:58:02.433Z,100
2017-07-09T23:58:22.795Z,100
2017-07-09T23:58:43.180Z,100
2017-07-09T23:59:03.477Z,100
2017-07-09T23:59:23.842Z,100
2017-07-09T23:59:44.147Z,100
